createdAt,value
2018-02-14T00:02:15.249Z,17.80
2018-02-14T00:04:43.562Z,16.80
2018-02-14T00:07:11.113Z,18.47
2018-02-14T00:09:39.461Z,17.90
2018-02-14T00:12:07.084Z,16.63
2018-02-14T00:14:35.415Z,18.00
2018-02-14T00:17:03.061Z,17.27
2018-02-14T00:19:31.436Z,17.83
2018-02-14T00:21:59.828Z,15.73
2018-02-14T00:24:27.412Z,17.60
2018-02-14T00:26:55.060Z,18.03
2018-02-14T00:29:23.376Z,18.50
2018-02-14T00:31:51.171Z,17.80
2018-02-14T00:34:18.762Z,19.23
2018-02-14T00:36:46.336Z,20.63
2018-02-14T00:39:13.865Z,17.13
2018-02-14T00:41:42.177Z,17.63
2018-02-14T00:44:09.928Z,18.37
2018-02-14T00:46:37.495Z,21.13
2018-02-14T00:49:05.143Z,21.00
2018-02-14T00:51:32.737Z,17.73
2018-02-14T00:54:01.157Z,20.10
2018-02-14T00:56:28.830Z,17.80
2018-02-14T00:58:56.501Z,18.70
2018-02-14T01:01:24.131Z,16.47
2018-02-14T01:03:51.719Z,18.83
2018-02-14T01:06:20.087Z,17.03
2018-02-14T01:08:47.701Z,18.80
2018-02-14T01:11:15.361Z,22.97
2018-02-14T01:13:43.726Z,15.97
2018-02-14T01:16:11.271Z,15.47
2018-02-14T01:18:44.454Z,15.93
2018-02-14T01:21:12.059Z,23.23
2018-02-14T01:23:39.623Z,18.07
2018-02-14T01:26:07.244Z,19.80
2018-02-14T01:28:35.541Z,19.23
2018-02-14T01:31:03.879Z,18.77
2018-02-14T01:33:31.433Z,21.07
2018-02-14T01:35:59.032Z,21.70
2018-02-14T01:38:26.600Z,18.37
2018-02-14T01:40:54.212Z,18.97
2018-02-14T01:43:22.623Z,21.40
2018-02-14T01:45:50.166Z,17.23
2018-02-14T01:48:17.764Z,16.80
2018-02-14T01:50:45.315Z,16.40
2018-02-14T01:53:13.631Z,17.27
2018-02-14T01:55:41.266Z,17.60
2018-02-14T01:58:08.852Z,15.87
2018-02-14T02:00:37.193Z,18.37
2018-02-14T02:03:04.754Z,15.70
2018-02-14T02:05:32.351Z,15.57
2018-02-14T02:10:32.808Z,16.70
2018-02-14T02:13:00.311Z,17.00
2018-02-14T02:15:27.837Z,15.57
2018-02-14T02:17:55.439Z,18.67
2018-02-14T02:20:22.968Z,15.53
2018-02-14T02:22:50.579Z,15.73
2018-02-14T02:25:18.188Z,18.03
2018-02-14T02:27:46.666Z,19.73
2018-02-14T02:30:14.296Z,18.03
2018-02-14T02:32:41.907Z,18.83
2018-02-14T02:35:09.458Z,28.93
2018-02-14T02:37:37.210Z,16.80
2018-02-14T02:40:16.779Z,17.00
2018-02-14T02:42:44.479Z,17.17
2018-02-14T02:45:12.059Z,17.43
2018-02-14T02:47:39.634Z,15.30
2018-02-14T02:50:07.304Z,13.53
2018-02-14T02:52:34.855Z,14.83
2018-02-14T02:55:02.410Z,15.63
2018-02-14T02:57:30.016Z,12.93
2018-02-14T02:59:57.608Z,17.17
2018-02-14T03:02:25.199Z,13.13
2018-02-14T03:04:54.068Z,15.23
2018-02-14T03:07:21.660Z,18.77
2018-02-14T03:09:50.006Z,21.90
2018-02-14T03:12:17.632Z,17.37
2018-02-14T03:14:45.950Z,19.30
2018-02-14T03:17:13.577Z,20.43
2018-02-14T03:19:41.193Z,19.17
2018-02-14T03:22:08.741Z,19.93
2018-02-14T03:24:36.302Z,19.77
2018-02-14T03:27:04.604Z,16.50
2018-02-14T03:29:32.972Z,15.60
2018-02-14T03:32:00.543Z,16.27
2018-02-14T03:34:28.083Z,14.37
2018-02-14T03:36:55.621Z,16.10
2018-02-14T03:39:23.235Z,17.17
2018-02-14T03:41:50.852Z,15.73
2018-02-14T03:44:18.371Z,14.90
2018-02-14T03:46:45.883Z,17.97
2018-02-14T03:49:13.407Z,16.07
2018-02-14T03:51:41.051Z,16.37
2018-02-14T03:54:08.630Z,16.03
2018-02-14T03:56:36.998Z,16.77
2018-02-14T03:59:04.612Z,17.03
2018-02-14T04:01:32.203Z,15.73
2018-02-14T04:03:59.794Z,15.30
2018-02-14T04:06:27.359Z,17.60
2018-02-14T04:08:54.974Z,15.77
2018-02-14T04:11:23.263Z,17.50
2018-02-14T04:13:51.562Z,16.77
2018-02-14T04:16:19.138Z,25.30
2018-02-14T04:18:46.699Z,15.57
2018-02-14T04:21:15.046Z,14.50
2018-02-14T04:23:42.686Z,15.60
2018-02-14T04:26:10.383Z,17.53
2018-02-14T04:28:37.974Z,14.57
2018-02-14T04:31:05.529Z,18.20
2018-02-14T04:33:33.069Z,18.37
2018-02-14T04:36:01.384Z,17.43
2018-02-14T04:38:28.933Z,18.55
2018-02-14T04:40:57.304Z,15.43
2018-02-14T04:43:24.941Z,17.23
2018-02-14T04:45:52.495Z,15.77
2018-02-14T04:48:20.177Z,15.20
2018-02-14T04:50:47.742Z,19.90
2018-02-14T04:53:15.322Z,18.70
2018-02-14T04:55:42.980Z,15.30
2018-02-14T04:58:10.518Z,15.47
2018-02-14T05:00:39.108Z,21.03
2018-02-14T05:03:07.476Z,26.83
2018-02-14T05:05:36.574Z,23.57
2018-02-14T05:08:04.141Z,22.63
2018-02-14T05:10:31.703Z,31.50
2018-02-14T05:12:59.274Z,26.50
2018-02-14T05:15:26.912Z,23.27
2018-02-14T05:17:54.492Z,22.00
2018-02-14T05:20:22.058Z,19.00
2018-02-14T05:22:50.471Z,13.73
2018-02-14T05:25:18.054Z,15.60
2018-02-14T05:27:45.640Z,18.57
2018-02-14T05:30:13.294Z,26.30
2018-02-14T05:32:40.936Z,17.13
2018-02-14T05:35:09.252Z,17.23
2018-02-14T05:37:36.812Z,16.70
2018-02-14T05:40:04.418Z,16.37
2018-02-14T05:42:32.075Z,21.13
2018-02-14T05:44:59.632Z,17.70
2018-02-14T05:47:27.208Z,18.83
2018-02-14T05:49:54.800Z,21.50
2018-02-14T05:52:22.392Z,20.10
2018-02-14T05:54:50.042Z,21.87
2018-02-14T05:57:17.622Z,17.50
2018-02-14T05:59:45.215Z,16.20
2018-02-14T06:02:12.849Z,18.27
2018-02-14T06:04:40.389Z,15.50
2018-02-14T06:07:07.948Z,19.23
2018-02-14T06:09:35.533Z,19.97
2018-02-14T06:12:03.137Z,18.97
2018-02-14T06:14:30.700Z,24.10
2018-02-14T06:16:58.319Z,20.93
2018-02-14T06:19:25.952Z,19.27
2018-02-14T06:21:53.563Z,19.70
2018-02-14T06:24:21.086Z,23.47
2018-02-14T06:26:49.392Z,27.27
2018-02-14T06:29:16.911Z,25.50
2018-02-14T06:31:44.485Z,23.03
2018-02-14T06:34:12.067Z,21.93
2018-02-14T06:36:39.731Z,21.43
2018-02-14T06:39:07.270Z,22.47
2018-02-14T06:41:34.852Z,22.40
2018-02-14T06:44:02.388Z,23.53
2018-02-14T06:46:30.688Z,22.57
2018-02-14T06:48:58.319Z,25.60
2018-02-14T06:51:25.989Z,30.47
2018-02-14T06:53:53.592Z,26.10
2018-02-14T06:56:21.954Z,29.90
2018-02-14T06:58:49.586Z,25.97
2018-02-14T07:01:17.854Z,30.77
2018-02-14T07:03:46.236Z,27.70
2018-02-14T07:06:14.587Z,26.00
2018-02-14T07:08:42.090Z,26.80
2018-02-14T07:11:09.679Z,24.77
2018-02-14T07:13:37.278Z,23.33
2018-02-14T07:16:04.845Z,24.97
2018-02-14T07:18:32.363Z,26.70
2018-02-14T07:21:00.056Z,29.10
2018-02-14T07:23:31.284Z,23.47
2018-02-14T07:25:58.988Z,26.73
2018-02-14T07:28:27.328Z,20.30
2018-02-14T07:30:54.996Z,22.57
2018-02-14T07:33:22.616Z,21.53
2018-02-14T07:35:51.009Z,22.90
2018-02-14T07:38:18.558Z,19.73
2018-02-14T07:40:46.080Z,22.40
2018-02-14T07:43:13.644Z,20.50
2018-02-14T07:45:41.972Z,19.80
2018-02-14T07:48:09.551Z,21.70
2018-02-14T07:50:37.080Z,19.53
2018-02-14T07:53:05.413Z,22.57
2018-02-14T07:55:32.985Z,25.17
2018-02-14T07:58:00.662Z,19.27
2018-02-14T08:00:28.178Z,20.70
2018-02-14T08:02:56.555Z,24.20
2018-02-14T08:05:24.179Z,19.90
2018-02-14T08:07:51.778Z,24.47
2018-02-14T08:10:19.444Z,24.03
2018-02-14T08:12:47.245Z,21.40
2018-02-14T08:15:14.796Z,20.77
2018-02-14T08:17:42.336Z,19.30
2018-02-14T08:20:09.975Z,20.17
2018-02-14T08:22:37.511Z,37.10
2018-02-14T08:25:05.142Z,18.13
2018-02-14T08:27:32.796Z,18.40
2018-02-14T08:30:00.409Z,20.03
2018-02-14T08:32:27.962Z,23.03
2018-02-14T08:34:56.277Z,19.83
2018-02-14T08:37:23.972Z,18.33
2018-02-14T08:39:51.568Z,20.13
2018-02-14T08:42:19.137Z,19.67
2018-02-14T08:44:46.683Z,19.63
2018-02-14T08:47:14.337Z,24.30
2018-02-14T08:49:41.991Z,24.47
2018-02-14T08:52:10.430Z,19.40
2018-02-14T08:54:38.014Z,20.17
2018-02-14T08:57:05.542Z,19.67
2018-02-14T08:59:33.112Z,18.60
2018-02-14T09:02:00.793Z,18.37
2018-02-14T09:04:28.339Z,20.43
2018-02-14T09:06:55.917Z,19.47
2018-02-14T09:09:23.525Z,20.77
2018-02-14T09:11:51.106Z,20.63
2018-02-14T09:14:18.685Z,21.73
2018-02-14T09:16:46.338Z,24.10
2018-02-14T09:19:13.893Z,21.93
2018-02-14T09:21:41.476Z,23.70
2018-02-14T09:24:09.022Z,20.80
2018-02-14T09:26:37.365Z,19.97
2018-02-14T09:29:04.861Z,19.33
2018-02-14T09:31:32.391Z,19.63
2018-02-14T09:33:59.995Z,20.07
2018-02-14T09:36:27.643Z,18.90
2018-02-14T09:38:55.208Z,20.70
2018-02-14T09:41:23.420Z,19.40
2018-02-14T09:43:51.063Z,19.33
2018-02-14T09:46:18.699Z,19.67
2018-02-14T09:48:47.060Z,17.43
2018-02-14T09:51:14.667Z,19.63
2018-02-14T09:53:43.000Z,20.10
2018-02-14T09:56:10.573Z,20.50
2018-02-14T09:58:38.224Z,20.93
2018-02-14T10:01:05.887Z,18.57
2018-02-14T10:03:33.442Z,20.07
2018-02-14T10:06:01.042Z,19.83
2018-02-14T10:08:28.609Z,21.30
2018-02-14T10:10:56.953Z,17.60
2018-02-14T10:13:24.565Z,17.27
2018-02-14T10:15:52.147Z,16.20
2018-02-14T10:18:20.450Z,15.50
2018-02-14T10:20:48.105Z,16.60
2018-02-14T10:23:15.637Z,15.57
2018-02-14T10:25:43.207Z,16.27
2018-02-14T10:28:10.836Z,15.43
2018-02-14T10:30:38.451Z,17.80
2018-02-14T10:33:06.005Z,18.03
2018-02-14T10:35:33.601Z,16.90
2018-02-14T10:38:01.185Z,17.27
2018-02-14T10:40:28.793Z,15.37
2018-02-14T10:42:56.447Z,17.33
2018-02-14T10:45:24.172Z,17.07
2018-02-14T10:47:51.757Z,16.50
2018-02-14T10:50:19.357Z,15.40
2018-02-14T10:52:46.997Z,16.00
2018-02-14T10:55:14.572Z,17.47
2018-02-14T10:57:42.109Z,14.80
2018-02-14T11:00:09.628Z,16.47
2018-02-14T11:02:42.996Z,17.67
2018-02-14T11:08:22.515Z,13.97
2018-02-14T11:10:49.983Z,14.87
2018-02-14T11:13:17.467Z,14.70
2018-02-14T11:15:44.930Z,14.27
2018-02-14T11:18:12.699Z,15.07
2018-02-14T11:20:40.309Z,14.57
2018-02-14T11:23:08.609Z,13.63
2018-02-14T11:25:37.030Z,14.03
2018-02-14T11:28:04.662Z,12.57
2018-02-14T11:30:32.829Z,16.67
2018-02-14T11:33:00.438Z,16.33
2018-02-14T11:35:28.758Z,12.47
2018-02-14T11:37:56.325Z,16.60
2018-02-14T11:40:23.950Z,15.60
2018-02-14T11:42:51.653Z,15.70
2018-02-14T11:45:20.058Z,14.60
2018-02-14T11:47:47.681Z,14.20
2018-02-14T11:50:15.245Z,14.50
2018-02-14T11:52:42.870Z,16.20
2018-02-14T11:55:10.561Z,14.97
2018-02-14T11:57:38.112Z,14.40
2018-02-14T12:00:06.468Z,15.57
2018-02-14T12:02:34.132Z,13.07
2018-02-14T12:05:01.697Z,14.87
2018-02-14T12:07:29.248Z,14.43
2018-02-14T12:09:56.991Z,13.37
2018-02-14T12:12:25.409Z,13.10
2018-02-14T12:14:53.117Z,13.97
2018-02-14T12:17:20.686Z,14.67
2018-02-14T12:19:48.309Z,12.33
2018-02-14T12:22:15.857Z,12.77
2018-02-14T12:24:43.853Z,12.60
2018-02-14T12:27:12.240Z,13.33
2018-02-14T12:29:40.617Z,12.93
2018-02-14T12:32:09.009Z,13.70
2018-02-14T12:34:36.653Z,13.83
2018-02-14T12:37:04.176Z,12.37
2018-02-14T12:39:31.726Z,14.07
2018-02-14T12:41:59.233Z,13.87
2018-02-14T12:44:26.778Z,12.93
2018-02-14T12:46:54.360Z,15.10
2018-02-14T12:49:22.671Z,13.73
2018-02-14T12:51:50.229Z,14.13
2018-02-14T12:54:18.514Z,13.63
2018-02-14T12:56:46.049Z,14.83
2018-02-14T12:59:13.622Z,15.57
2018-02-14T13:01:41.249Z,15.73
2018-02-14T13:04:08.761Z,14.43
2018-02-14T13:06:36.345Z,14.93
2018-02-14T13:09:03.900Z,13.93
2018-02-14T13:11:31.435Z,13.97
2018-02-14T13:13:59.047Z,14.20
2018-02-14T13:16:26.606Z,15.87
2018-02-14T13:18:54.165Z,12.80
2018-02-14T13:21:22.329Z,13.13
2018-02-14T13:23:49.880Z,15.07
2018-02-14T13:26:18.236Z,13.33
2018-02-14T13:28:45.779Z,13.90
2018-02-14T13:31:13.372Z,14.57
2018-02-14T13:33:41.159Z,15.67
2018-02-14T13:36:08.794Z,22.80
2018-02-14T13:38:36.348Z,17.03
2018-02-14T13:41:04.715Z,13.30
2018-02-14T13:43:32.988Z,14.07
2018-02-14T13:46:00.530Z,16.47
2018-02-14T13:48:28.071Z,13.50
2018-02-14T13:50:56.381Z,14.17
2018-02-14T13:53:23.929Z,14.47
2018-02-14T13:55:51.503Z,16.63
2018-02-14T13:58:19.052Z,17.37
2018-02-14T14:00:46.605Z,15.43
2018-02-14T14:03:14.160Z,14.23
2018-02-14T14:05:41.697Z,14.03
2018-02-14T14:08:09.994Z,12.93
2018-02-14T14:10:37.636Z,13.13
2018-02-14T14:13:05.210Z,13.40
2018-02-14T14:15:32.763Z,14.13
2018-02-14T14:18:00.301Z,13.20
2018-02-14T14:20:27.892Z,14.37
2018-02-14T14:22:55.454Z,12.20
2018-02-14T14:25:23.017Z,13.70
2018-02-14T14:27:50.593Z,14.00
2018-02-14T14:30:18.175Z,12.50
2018-02-14T14:32:45.708Z,10.97
2018-02-14T14:35:13.286Z,12.63
2018-02-14T14:37:41.573Z,11.13
2018-02-14T14:40:09.079Z,13.93
2018-02-14T14:42:36.649Z,11.73
2018-02-14T14:45:04.236Z,11.33
2018-02-14T14:47:31.794Z,11.43
2018-02-14T14:49:59.364Z,11.87
2018-02-14T14:52:26.938Z,14.40
2018-02-14T14:54:54.503Z,13.60
2018-02-14T14:57:22.240Z,17.77
2018-02-14T14:59:50.592Z,14.33
2018-02-14T15:02:18.185Z,14.23
2018-02-14T15:04:45.787Z,10.93
2018-02-14T15:07:13.312Z,14.13
2018-02-14T15:09:40.846Z,11.40
2018-02-14T15:12:08.402Z,12.10
2018-02-14T15:14:36.750Z,12.87
2018-02-14T15:17:04.357Z,13.63
2018-02-14T15:19:32.724Z,13.00
2018-02-14T15:22:00.300Z,11.53
2018-02-14T15:24:27.874Z,11.20
2018-02-14T15:26:55.428Z,11.27
2018-02-14T15:29:23.021Z,10.97
2018-02-14T15:31:51.347Z,11.93
2018-02-14T15:34:18.922Z,11.87
2018-02-14T15:36:46.488Z,13.30
2018-02-14T15:39:14.028Z,9.93
2018-02-14T15:41:41.656Z,12.80
2018-02-14T15:44:09.196Z,11.67
2018-02-14T15:46:36.830Z,12.13
2018-02-14T15:49:04.399Z,9.67
2018-02-14T15:51:31.963Z,10.63
2018-02-14T15:53:59.517Z,11.37
2018-02-14T15:56:27.028Z,11.50
2018-02-14T15:58:54.637Z,10.50
2018-02-14T16:01:22.204Z,10.83
2018-02-14T16:03:50.508Z,10.63
2018-02-14T16:06:18.023Z,9.37
2018-02-14T16:08:45.603Z,11.00
2018-02-14T16:11:13.125Z,10.77
2018-02-14T16:13:40.677Z,9.73
2018-02-14T16:16:09.000Z,10.70
2018-02-14T16:18:36.539Z,9.10
2018-02-14T16:21:04.832Z,11.97
2018-02-14T16:23:32.389Z,14.77
2018-02-14T16:26:00.701Z,13.13
2018-02-14T16:28:28.260Z,10.97
2018-02-14T16:30:56.580Z,12.87
2018-02-14T16:33:24.098Z,11.30
2018-02-14T16:35:51.712Z,11.83
2018-02-14T16:38:19.252Z,12.90
2018-02-14T16:40:47.610Z,12.47
2018-02-14T16:43:15.154Z,10.87
2018-02-14T16:45:42.751Z,11.00
2018-02-14T16:48:10.367Z,11.53
2018-02-14T16:50:38.668Z,9.47
2018-02-14T16:53:06.315Z,12.03
2018-02-14T16:55:33.835Z,13.87
2018-02-14T16:58:01.465Z,10.17
2018-02-14T17:00:29.046Z,13.93
2018-02-14T17:02:57.433Z,12.83
2018-02-14T17:05:25.105Z,14.80
2018-02-14T17:07:52.705Z,14.27
2018-02-14T17:10:20.304Z,16.47
2018-02-14T17:12:47.836Z,13.70
2018-02-14T17:15:16.150Z,14.07
2018-02-14T17:17:43.649Z,17.77
2018-02-14T17:20:11.212Z,16.33
2018-02-14T17:22:38.777Z,19.60
2018-02-14T17:25:06.357Z,17.00
2018-02-14T17:27:33.907Z,14.43
2018-02-14T17:30:01.476Z,12.70
2018-02-14T17:32:29.097Z,11.97
2018-02-14T17:34:56.662Z,10.63
2018-02-14T17:37:24.210Z,10.80
2018-02-14T17:39:51.766Z,11.47
2018-02-14T17:42:19.381Z,13.47
2018-02-14T17:44:46.928Z,14.83
2018-02-14T17:47:14.479Z,12.53
2018-02-14T17:49:42.018Z,16.63
2018-02-14T17:52:09.590Z,11.77
2018-02-14T17:54:37.893Z,16.10
2018-02-14T17:57:06.240Z,18.40
2018-02-14T17:59:33.792Z,18.80
2018-02-14T18:02:01.377Z,23.10
2018-02-14T18:04:29.082Z,20.20
2018-02-14T18:06:56.720Z,21.87
2018-02-14T18:09:24.723Z,17.50
2018-02-14T18:11:53.261Z,16.67
2018-02-14T18:14:21.682Z,18.37
2018-02-14T18:16:49.229Z,22.80
2018-02-14T18:19:16.829Z,19.53
2018-02-14T18:21:44.432Z,40.47
2018-02-14T18:24:11.990Z,18.23
2018-02-14T18:26:39.608Z,17.93
2018-02-14T18:29:07.921Z,18.13
2018-02-14T18:31:35.435Z,15.83
2018-02-14T18:34:03.033Z,19.87
2018-02-14T18:36:30.668Z,35.87
2018-02-14T18:38:58.956Z,25.40
2018-02-14T18:41:27.399Z,20.57
2018-02-14T18:43:55.016Z,17.20
2018-02-14T18:46:22.651Z,17.30
2018-02-14T18:48:50.283Z,17.10
2018-02-14T18:51:17.848Z,17.63
2018-02-14T18:53:45.404Z,20.07
2018-02-14T18:56:12.970Z,16.03
2018-02-14T18:58:40.520Z,20.17
2018-02-14T19:01:08.105Z,19.43
2018-02-14T19:03:35.684Z,13.77
2018-02-14T19:06:03.235Z,15.80
2018-02-14T19:08:31.543Z,21.83
2018-02-14T19:10:59.071Z,15.13
2018-02-14T19:13:26.723Z,14.90
2018-02-14T19:15:54.359Z,16.57
2018-02-14T19:18:21.903Z,18.43
2018-02-14T19:20:50.335Z,18.70
2018-02-14T19:23:17.897Z,22.87
2018-02-14T19:25:45.499Z,20.17
2018-02-14T19:28:13.072Z,14.13
2018-02-14T19:30:40.708Z,27.93
2018-02-14T19:33:08.264Z,20.70
2018-02-14T19:35:35.856Z,14.03
2018-02-14T19:38:03.532Z,16.07
2018-02-14T19:40:31.172Z,14.27
2018-02-14T19:42:59.481Z,14.60
2018-02-14T19:45:27.956Z,12.77
2018-02-14T19:47:56.344Z,11.40
2018-02-14T19:50:25.610Z,14.53
2018-02-14T19:52:53.194Z,13.83
2018-02-14T19:55:20.761Z,12.37
2018-02-14T19:57:48.376Z,14.97
2018-02-14T20:00:16.681Z,14.60
2018-02-14T20:02:44.249Z,11.73
2018-02-14T20:05:12.634Z,13.03
2018-02-14T20:07:40.997Z,14.57
2018-02-14T20:10:08.610Z,13.00
2018-02-14T20:12:36.143Z,14.90
2018-02-14T20:15:03.748Z,17.57
2018-02-14T20:17:32.123Z,17.27
2018-02-14T20:19:59.709Z,12.33
2018-02-14T20:22:28.085Z,15.77
2018-02-14T20:24:56.497Z,12.43
2018-02-14T20:27:24.072Z,14.17
2018-02-14T20:29:51.629Z,13.10
2018-02-14T20:32:20.025Z,14.47
2018-02-14T20:34:48.323Z,15.83
2018-02-14T20:37:15.961Z,23.30
2018-02-14T20:39:43.548Z,15.17
2018-02-14T20:42:11.951Z,18.20
2018-02-14T20:44:39.485Z,15.60
2018-02-14T20:47:07.078Z,15.17
2018-02-14T20:49:34.642Z,12.40
2018-02-14T20:52:02.210Z,18.10
2018-02-14T20:54:29.764Z,10.93
2018-02-14T20:56:57.293Z,12.03
2018-02-14T20:59:24.876Z,14.83
2018-02-14T21:01:52.423Z,16.20
2018-02-14T21:04:20.028Z,13.77
2018-02-14T21:06:47.550Z,15.03
2018-02-14T21:09:15.104Z,10.97
2018-02-14T21:11:42.656Z,11.27
2018-02-14T21:14:10.201Z,9.33
2018-02-14T21:16:38.483Z,11.57
2018-02-14T21:19:06.050Z,11.30
2018-02-14T21:21:34.385Z,11.57
2018-02-14T21:24:02.032Z,12.30
2018-02-14T21:26:29.650Z,14.63
2018-02-14T21:28:57.239Z,17.93
2018-02-14T21:31:24.806Z,12.60
2018-02-14T21:33:52.529Z,12.97
2018-02-14T21:36:20.146Z,10.47
2018-02-14T21:38:47.688Z,13.13
2018-02-14T21:41:15.339Z,12.60
2018-02-14T21:43:42.949Z,16.10
2018-02-14T21:46:10.564Z,15.17
2018-02-14T21:48:38.926Z,15.13
2018-02-14T21:51:06.488Z,15.63
2018-02-14T21:53:34.077Z,15.53
2018-02-14T21:56:02.437Z,15.20
2018-02-14T21:58:30.049Z,16.70
2018-02-14T22:00:57.643Z,13.87
2018-02-14T22:03:25.338Z,13.27
2018-02-14T22:05:52.903Z,10.93
2018-02-14T22:08:21.213Z,15.63
2018-02-14T22:10:48.816Z,11.57
2018-02-14T22:13:16.410Z,12.97
2018-02-14T22:15:43.976Z,12.17
2018-02-14T22:18:11.524Z,10.20
2018-02-14T22:20:39.073Z,13.33
2018-02-14T22:23:06.618Z,10.37
2018-02-14T22:25:34.270Z,13.80
2018-02-14T22:28:01.859Z,10.73
2018-02-14T22:30:29.489Z,10.67
2018-02-14T22:32:57.247Z,11.30
2018-02-14T22:35:24.800Z,12.30
2018-02-14T22:37:53.091Z,12.53
2018-02-14T22:40:20.625Z,10.93
2018-02-14T22:42:48.214Z,11.53
2018-02-14T22:45:16.571Z,13.07
2018-02-14T22:47:44.102Z,12.97
2018-02-14T22:50:11.722Z,12.40
2018-02-14T22:52:39.286Z,19.53
2018-02-14T22:55:06.812Z,19.10
2018-02-14T22:57:34.796Z,14.17
2018-02-14T23:00:02.345Z,11.33
2018-02-14T23:02:29.904Z,14.97
2018-02-14T23:04:57.591Z,12.60
2018-02-14T23:07:25.192Z,13.87
2018-02-14T23:09:53.052Z,13.37
2018-02-14T23:12:21.415Z,9.87
2018-02-14T23:14:49.940Z,12.60
2018-02-14T23:17:18.266Z,12.50
2018-02-14T23:19:45.845Z,10.53
2018-02-14T23:22:13.443Z,11.27
2018-02-14T23:24:41.034Z,14.70
2018-02-14T23:27:08.617Z,11.13
2018-02-14T23:29:36.909Z,15.90
2018-02-14T23:32:05.323Z,13.83
2018-02-14T23:34:32.904Z,14.93
2018-02-14T23:37:00.545Z,14.00
2018-02-14T23:39:28.861Z,12.97
2018-02-14T23:41:57.288Z,15.17
2018-02-14T23:44:24.868Z,19.00
2018-02-14T23:46:52.424Z,15.23
2018-02-14T23:49:20.283Z,16.03
2018-02-14T23:51:47.820Z,28.87
2018-02-14T23:54:16.109Z,28.93
2018-02-14T23:56:43.679Z,16.53
2018-02-14T23:59:12.068Z,15.47
